Time;durP1;ratioP1;P1;durP2;ratioP2;P2;SDS_P1;SDS_P2;PMS_P1;PMS_P2;Temp;Humidity;BMP_temperature;BMP_pressure;BME280_temperature;BME280_humidity;BME280_pressure;Samples;Min_cycle;Max_cycle;Signal;HPM_P1;HPM_P2
2022/01/29 00:01:24;;;;;;;16.15;11.35;;;;;;;1.04;65.63;100851.72;5041511;28;20055;-73
2022/01/29 00:03:49;;;;;;;14.15;9.65;;;;;;;1.00;65.74;100831.72;5041464;28;20473;-72
2022/01/29 00:06:15;;;;;;;21.63;9.32;;;;;;;0.86;66.26;100831.09;5035306;28;20036;-71
2022/01/29 00:08:40;;;;;;;15.57;10.70;;;;;;;0.67;66.43;100831.94;5090027;28;20024;-71
2022/01/29 00:11:13;;;;;;;16.75;10.32;;;;;;;0.91;66.38;100851.97;5077536;28;20029;-72
2022/01/29 00:13:38;;;;;;;11.57;9.13;;;;;;;0.68;66.66;100856.97;5079298;28;20090;-70
2022/01/29 00:16:04;;;;;;;19.10;12.40;;;;;;;0.62;66.93;100844.63;5081672;28;20123;-73
2022/01/29 00:18:30;;;;;;;16.00;11.18;;;;;;;0.56;67.14;100865.03;5080419;28;20131;-73
2022/01/29 00:20:55;;;;;;;16.65;11.90;;;;;;;0.66;67.24;100845.69;5081588;28;20549;-72
2022/01/29 00:23:21;;;;;;;18.30;10.07;;;;;;;0.86;66.74;100859.50;5080860;28;20039;-74
2022/01/29 00:25:46;;;;;;;15.32;10.15;;;;;;;0.63;67.25;100845.50;5083096;28;20046;-74
2022/01/29 00:28:15;;;;;;;15.60;10.10;;;;;;;0.68;67.24;100854.38;5076316;28;20036;-72
2022/01/29 00:30:42;;;;;;;15.73;9.93;;;;;;;0.80;66.96;100854.06;5081174;28;20043;-72
2022/01/29 00:33:09;;;;;;;16.70;9.85;;;;;;;0.75;66.92;100859.03;5097555;28;21089;-73
2022/01/29 00:35:34;;;;;;;21.23;12.55;;;;;;;0.78;67.19;100858.28;5082280;28;20379;-73
2022/01/29 00:38:00;;;;;;;19.42;11.35;;;;;;;0.77;66.90;100856.50;5080986;28;20097;-73
2022/01/29 00:40:26;;;;;;;16.65;10.00;;;;;;;0.98;67.02;100891.09;5080940;28;20064;-72
2022/01/29 00:42:51;;;;;;;17.08;9.57;;;;;;;0.92;66.94;100885.63;5079694;28;20097;-75
2022/01/29 00:45:17;;;;;;;15.60;10.43;;;;;;;0.92;66.74;100895.97;5081036;28;20052;-71
2022/01/29 00:47:42;;;;;;;16.13;11.85;;;;;;;0.85;67.00;100896.50;5085503;28;20357;-72
2022/01/29 00:50:10;;;;;;;12.20;9.18;;;;;;;0.67;67.41;100886.16;5084500;28;20111;-74
2022/01/29 00:52:38;;;;;;;12.27;8.98;;;;;;;0.79;67.52;100885.88;5084499;28;20056;-71
2022/01/29 00:55:16;;;;;;;16.15;11.48;;;;;;;0.67;67.67;100891.34;5085759;28;20185;-71
2022/01/29 01:01:13;;;;;;;17.70;10.20;;;;;;;0.92;67.50;100864.09;5092760;28;20395;-72
2022/01/29 01:03:38;;;;;;;15.85;10.77;;;;;;;0.78;67.63;100878.94;5078886;28;20052;-72
2022/01/29 01:06:04;;;;;;;14.60;8.52;;;;;;;0.57;68.26;100874.53;5060038;28;20037;-72
2022/01/29 01:08:29;;;;;;;10.88;8.00;;;;;;;0.61;68.48;100868.69;5060923;28;20049;-71
2022/01/29 01:11:06;;;;;;;13.40;10.77;;;;;;;0.75;67.79;100861.59;5054374;28;20041;-72
2022/01/29 01:13:33;;;;;;;17.48;12.30;;;;;;;0.90;67.46;100861.41;5071596;28;20071;-72
2022/01/29 01:16:00;;;;;;;15.57;9.43;;;;;;;0.79;68.14;100886.75;5060785;28;20139;-76
2022/01/29 01:21:38;;;;;;;15.20;9.45;;;;;;;1.07;67.09;100879.41;5070576;28;20049;-71
2022/01/29 01:24:03;;;;;;;15.35;10.35;;;;;;;1.07;67.40;100884.56;5087354;28;20053;-72
2022/01/29 01:26:29;;;;;;;16.55;9.43;;;;;;;0.91;67.42;100855.41;5061452;28;20025;-71
2022/01/29 01:29:40;;;;;;;14.90;10.05;;;;;;;0.90;67.34;100882.09;5067591;28;20052;-71
2022/01/29 01:32:10;;;;;;;18.40;10.63;;;;;;;0.88;67.77;100875.09;5069231;28;20434;-72
2022/01/29 01:34:39;;;;;;;20.52;8.45;;;;;;;0.58;68.41;100862.50;5067570;28;20057;-71
2022/01/29 01:37:09;;;;;;;19.02;10.00;;;;;;;0.68;67.87;100850.88;5068411;28;20037;-80
2022/01/29 01:40:20;;;;;;;15.18;10.05;;;;;;;0.74;68.12;100871.84;5072668;28;20060;-70
2022/01/29 01:42:45;;;;;;;14.60;7.68;;;;;;;0.77;68.25;100875.47;5068180;28;20041;-71
2022/01/29 01:45:11;;;;;;;12.98;9.30;;;;;;;0.77;68.18;100885.81;5077127;28;20043;-71
2022/01/29 01:47:37;;;;;;;19.88;10.07;;;;;;;0.75;68.53;100881.34;5075926;28;20587;-78
2022/01/29 01:50:04;;;;;;;16.63;11.05;;;;;;;0.83;67.82;100862.81;5077484;28;20044;-71
2022/01/29 01:52:30;;;;;;;15.73;10.57;;;;;;;0.82;68.36;100883.44;5065329;28;20508;-71
2022/01/29 01:54:55;;;;;;;17.15;11.32;;;;;;;0.56;68.89;100872.75;5058069;28;20053;-71
2022/01/29 01:57:21;;;;;;;13.27;9.02;;;;;;;0.76;68.84;100883.16;5068358;28;20044;-72
2022/01/29 01:59:46;;;;;;;15.05;10.52;;;;;;;0.67;68.58;100868.09;5071435;28;20493;-72
2022/01/29 02:02:12;;;;;;;12.88;7.75;;;;;;;0.76;68.25;100884.03;5080368;28;20036;-71
2022/01/29 02:04:38;;;;;;;13.02;8.48;;;;;;;0.37;69.50;100889.03;5092274;28;20055;-72
2022/01/29 02:07:04;;;;;;;14.35;10.35;;;;;;;0.46;69.30;100870.53;5072626;28;20045;-71
2022/01/29 02:09:31;;;;;;;16.88;10.70;;;;;;;0.73;69.05;100888.19;5089947;28;20036;-71
2022/01/29 02:12:19;;;;;;;14.98;9.15;;;;;;;0.71;68.81;100894.97;5072039;28;20447;-72
2022/01/29 02:14:45;;;;;;;19.88;10.32;;;;;;;0.55;69.63;100889.06;5077362;28;20024;-72
2022/01/29 02:17:11;;;;;;;16.75;8.80;;;;;;;0.60;69.34;100897.91;5063017;28;20123;-71
2022/01/29 02:19:37;;;;;;;13.00;9.50;;;;;;;0.37;69.24;100909.69;5069329;28;20062;-70
2022/01/29 02:22:04;;;;;;;27.38;8.57;;;;;;;0.50;69.46;100902.56;5076844;28;20037;-72
2022/01/29 02:24:29;;;;;;;16.77;10.70;;;;;;;0.67;68.83;100908.53;5069381;28;20391;-70
2022/01/29 02:27:14;;;;;;;20.73;11.65;;;;;;;0.48;69.39;100912.81;5069852;28;20043;-70
2022/01/29 02:29:39;;;;;;;15.40;8.35;;;;;;;0.44;69.77;100916.03;5068565;28;20115;-70
2022/01/29 02:32:05;;;;;;;16.42;10.95;;;;;;;0.35;69.99;100920.75;5070961;28;20028;-71
2022/01/29 02:34:38;;;;;;;15.88;8.52;;;;;;;0.24;69.98;100912.50;5062118;28;20381;-70
2022/01/29 02:37:03;;;;;;;21.52;7.63;;;;;;;0.62;69.14;100924.69;5068994;28;20476;-71
2022/01/29 02:39:29;;;;;;;13.90;9.10;;;;;;;0.40;69.34;100915.03;5071058;28;20033;-71
2022/01/29 02:41:57;;;;;;;13.70;9.65;;;;;;;0.77;68.71;100936.56;5068326;28;20410;-71
2022/01/29 02:45:08;;;;;;;18.08;10.02;;;;;;;0.48;69.51;100941.19;5069285;28;20477;-71
2022/01/29 02:47:34;;;;;;;17.25;11.23;;;;;;;0.48;69.72;100936.03;5061640;28;20044;-72
2022/01/29 02:49:59;;;;;;;17.88;12.38;;;;;;;0.34;70.00;100919.00;5069036;28;20051;-71
2022/01/29 02:52:25;;;;;;;15.00;8.60;;;;;;;0.43;69.65;100931.47;5072108;28;20052;-71
2022/01/29 02:55:16;;;;;;;15.82;9.23;;;;;;;0.64;69.33;100948.00;5070794;28;20505;-71
2022/01/29 02:57:41;;;;;;;12.88;7.65;;;;;;;0.40;69.29;100932.22;5060545;28;20032;-73
2022/01/29 03:00:26;;;;;;;14.25;10.73;;;;;;;0.35;70.00;100956.88;5060955;28;20106;-71
2022/01/29 03:02:52;;;;;;;14.48;9.40;;;;;;;0.35;69.55;100938.81;5062575;28;20036;-71
2022/01/29 03:05:17;;;;;;;23.85;10.57;;;;;;;0.43;69.87;100949.53;5058450;28;20056;-71
2022/01/29 03:07:43;;;;;;;21.17;10.25;;;;;;;0.42;70.02;100943.47;5066241;28;20528;-71
2022/01/29 03:10:09;;;;;;;16.17;9.57;;;;;;;0.29;70.21;100956.59;5065873;28;20541;-72
2022/01/29 03:12:37;;;;;;;14.38;10.27;;;;;;;0.22;70.43;100936.47;5060852;28;20532;-72
2022/01/29 03:15:04;;;;;;;12.38;7.85;;;;;;;0.24;70.63;100960.66;5071931;28;20491;-70
2022/01/29 03:17:29;;;;;;;15.73;10.30;;;;;;;0.31;70.50;100949.81;5071684;28;20036;-71
2022/01/29 03:19:54;;;;;;;20.55;11.13;;;;;;;0.45;70.03;100966.88;5060433;28;20041;-71
2022/01/29 03:22:20;;;;;;;19.10;10.73;;;;;;;0.39;69.73;100971.72;5055549;28;20166;-71
2022/01/29 03:24:45;;;;;;;15.35;9.63;;;;;;;0.47;69.33;100969.50;5056003;28;20082;-71
2022/01/29 03:27:11;;;;;;;16.25;10.43;;;;;;;0.24;69.92;100946.03;5064135;28;20032;-70
2022/01/29 03:29:37;;;;;;;12.35;8.23;;;;;;;0.16;70.22;100974.06;5060275;28;20058;-70
2022/01/29 03:32:24;;;;;;;17.50;9.23;;;;;;;0.24;70.04;100976.13;5068893;28;20025;-71
2022/01/29 03:34:49;;;;;;;14.55;10.60;;;;;;;0.35;69.68;100964.63;5067908;28;20082;-72
2022/01/29 03:37:15;;;;;;;11.88;8.07;;;;;;;0.32;69.46;100957.63;5057797;28;20044;-71
2022/01/29 03:39:43;;;;;;;19.48;10.98;;;;;;;0.33;70.38;100980.06;5065550;28;20407;-72
2022/01/29 03:42:10;;;;;;;11.95;6.88;;;;;;;0.14;70.53;100980.81;5072257;28;20051;-71
2022/01/29 03:44:35;;;;;;;15.73;9.40;;;;;;;0.03;70.55;100965.59;5067542;28;20025;-72
2022/01/29 03:47:01;;;;;;;10.80;7.07;;;;;;;0.11;70.73;100975.50;5067670;28;20094;-73
2022/01/29 03:49:26;;;;;;;18.13;10.77;;;;;;;0.09;70.34;100950.41;5071680;28;20068;-71
2022/01/29 03:51:52;;;;;;;21.02;10.52;;;;;;;0.38;69.91;100988.91;5066840;28;20373;-72
2022/01/29 03:54:17;;;;;;;16.90;10.07;;;;;;;0.35;70.14;100988.78;5068084;28;20431;-71
2022/01/29 03:56:43;;;;;;;13.57;9.02;;;;;;;0.12;70.54;100991.88;5064196;28;20055;-70
2022/01/29 03:59:09;;;;;;;13.07;7.60;;;;;;;0.43;70.23;100998.59;5068893;28;20452;-70
2022/01/29 04:01:34;;;;;;;16.27;10.45;;;;;;;0.27;70.15;101002.97;5066831;28;20028;-70
2022/01/29 04:04:00;;;;;;;17.52;11.10;;;;;;;-0.02;70.97;100988.59;5063983;28;20128;-73
2022/01/29 04:06:26;;;;;;;13.38;8.55;;;;;;;0.27;70.59;101005.53;5063232;28;20086;-70
2022/01/29 04:08:52;;;;;;;11.10;9.25;;;;;;;-0.08;70.57;100994.28;5067522;28;20024;-70
2022/01/29 04:11:18;;;;;;;11.07;8.02;;;;;;;0.12;70.46;101012.53;5068340;28;20364;-70
2022/01/29 04:13:46;;;;;;;17.95;10.40;;;;;;;0.24;70.79;101015.72;5057916;28;20052;-71
2022/01/29 04:16:15;;;;;;;10.18;7.88;;;;;;;0.32;70.91;101011.81;5066915;28;20137;-71
2022/01/29 04:18:41;;;;;;;17.83;10.50;;;;;;;0.18;70.51;101020.56;5068547;28;20044;-70
2022/01/29 04:21:07;;;;;;;14.30;9.27;;;;;;;0.37;69.87;101002.59;5070004;28;20063;-70
2022/01/29 04:23:34;;;;;;;22.80;8.70;;;;;;;0.02;70.64;101012.84;5068438;28;20028;-73
2022/01/29 04:26:07;;;;;;;16.52;9.32;;;;;;;-0.06;70.90;100995.25;5068667;28;20043;-72
2022/01/29 04:28:40;;;;;;;15.25;8.20;;;;;;;-0.13;70.94;101000.91;5065388;28;20544;-71
2022/01/29 04:31:11;;;;;;;13.85;8.13;;;;;;;-0.06;71.54;101028.78;5066550;28;20087;-74
2022/01/29 04:34:28;;;;;;;21.75;9.32;;;;;;;-0.17;71.64;101045.38;5067579;28;20498;-70
2022/01/29 04:37:06;;;;;;;17.85;10.10;;;;;;;0.21;70.44;101041.34;5052928;28;20041;-72
2022/01/29 04:39:32;;;;;;;18.52;10.23;;;;;;;0.02;70.65;101026.59;5067372;28;20064;-72
2022/01/29 04:41:57;;;;;;;15.95;12.13;;;;;;;0.19;70.56;101049.03;5075109;28;20059;-72
2022/01/29 04:44:22;;;;;;;16.95;9.43;;;;;;;0.04;70.65;101042.19;5063365;28;20056;-71
2022/01/29 04:46:48;;;;;;;12.27;7.93;;;;;;;-0.08;71.02;101045.88;5085877;28;20048;-72
2022/01/29 04:49:13;;;;;;;11.70;8.43;;;;;;;-0.38;71.50;101051.97;5070468;28;20131;-71
2022/01/29 04:51:39;;;;;;;17.90;10.05;;;;;;;-0.08;71.56;101075.94;5065852;28;20468;-74
2022/01/29 04:54:04;;;;;;;17.40;10.63;;;;;;;-0.12;71.15;101053.38;5076483;28;20468;-72
2022/01/29 04:56:30;;;;;;;12.40;10.10;;;;;;;0.07;70.81;101071.63;5072499;28;20482;-72
2022/01/29 04:58:55;;;;;;;15.18;8.38;;;;;;;0.07;70.21;101057.81;5068165;28;20124;-72
2022/01/29 05:01:21;;;;;;;16.35;11.75;;;;;;;-0.13;70.79;101057.66;5066361;28;20044;-72
2022/01/29 05:03:46;;;;;;;17.50;10.98;;;;;;;-0.43;71.31;101067.19;5060122;28;20048;-73
2022/01/29 05:06:12;;;;;;;19.08;11.55;;;;;;;-0.35;71.95;101070.19;5069114;28;20040;-73
2022/01/29 05:08:38;;;;;;;14.63;10.10;;;;;;;-0.06;71.19;101095.84;5069169;28;20047;-72
2022/01/29 05:11:05;;;;;;;17.30;9.00;;;;;;;0.14;71.02;101102.09;5071959;28;20041;-72
2022/01/29 05:13:32;;;;;;;15.73;9.30;;;;;;;-0.01;70.75;101097.00;5060835;28;20041;-73
2022/01/29 05:29:20;;;;;;;12.95;8.48;;;;;;;-0.32;72.65;101099.59;5068203;28;20052;-73
2022/01/29 05:31:50;;;;;;;17.70;10.63;;;;;;;-0.23;73.07;101127.59;5068197;28;20070;-75
2022/01/29 05:34:16;;;;;;;14.65;10.02;;;;;;;-0.24;72.94;101131.84;5071678;28;20051;-71
2022/01/29 05:36:43;;;;;;;18.60;10.00;;;;;;;-0.23;73.11;101120.75;5076746;28;20040;-72
2022/01/29 05:39:09;;;;;;;18.85;9.45;;;;;;;-0.12;72.51;101121.31;5067685;28;20044;-71
2022/01/29 05:41:34;;;;;;;13.20;8.82;;;;;;;-0.56;74.54;101136.91;5063056;28;20078;-74
2022/01/29 05:44:00;;;;;;;27.95;12.48;;;;;;;-0.14;72.94;101130.69;5069344;28;20048;-75
2022/01/29 05:46:26;;;;;;;19.13;10.70;;;;;;;-0.02;72.69;101141.66;5069697;28;20037;-71
2022/01/29 05:48:52;;;;;;;17.65;9.73;;;;;;;0.02;73.09;101144.41;5068130;28;20052;-71
2022/01/29 05:51:17;;;;;;;15.68;12.00;;;;;;;0.03;72.22;101153.94;5070974;28;20041;-71
2022/01/29 05:54:04;;;;;;;15.60;9.98;;;;;;;-0.03;72.51;101165.66;5070570;28;20089;-71
2022/01/29 05:56:30;;;;;;;12.98;9.18;;;;;;;-0.03;73.12;101173.41;5062591;28;20080;-71
2022/01/29 05:58:56;;;;;;;22.52;9.88;;;;;;;0.15;72.66;101178.69;5064551;28;20052;-71
2022/01/29 06:01:36;;;;;;;18.90;11.88;;;;;;;0.28;72.31;101181.94;5069304;28;20043;-70
2022/01/29 06:04:01;;;;;;;16.25;9.40;;;;;;;0.11;72.25;101181.00;5071026;28;20049;-72
2022/01/29 06:06:27;;;;;;;16.52;9.88;;;;;;;0.02;72.75;101178.81;5069642;28;20051;-72
2022/01/29 06:08:52;;;;;;;19.02;10.93;;;;;;;0.20;72.13;101190.13;5068702;28;20040;-72
2022/01/29 06:11:36;;;;;;;22.58;11.77;;;;;;;0.17;71.97;101184.81;5068783;28;20021;-71
2022/01/29 06:14:01;;;;;;;16.88;13.65;;;;;;;0.00;72.95;101195.94;5061048;28;20131;-71
2022/01/29 06:16:27;;;;;;;32.05;13.10;;;;;;;-0.13;73.50;101180.56;5067300;28;20525;-72
2022/01/29 06:18:53;;;;;;;24.15;16.30;;;;;;;-0.15;73.49;101195.06;5068903;28;20055;-72
2022/01/29 06:21:18;;;;;;;26.60;16.90;;;;;;;0.12;73.44;101214.66;5074388;28;20049;-72
2022/01/29 06:23:44;;;;;;;38.13;29.38;;;;;;;0.10;72.95;101215.38;5061136;28;20024;-71
2022/01/29 06:26:11;;;;;;;22.83;17.60;;;;;;;0.01;73.20;101212.28;5059239;28;20134;-72
2022/01/29 06:28:38;;;;;;;23.48;12.15;;;;;;;-0.46;74.67;101212.28;5068429;28;20051;-74
2022/01/29 06:31:03;;;;;;;17.92;13.20;;;;;;;-0.20;74.77;101237.78;5063581;28;20052;-71
2022/01/29 06:33:29;;;;;;;20.10;10.68;;;;;;;-0.13;74.31;101245.06;5069070;28;20082;-72
2022/01/29 06:36:03;;;;;;;17.92;11.18;;;;;;;-0.20;73.88;101219.72;5066739;28;20032;-72
2022/01/29 06:38:29;;;;;;;15.98;11.40;;;;;;;0.19;72.71;101245.16;5067158;28;20405;-71
2022/01/29 06:40:54;;;;;;;26.17;15.43;;;;;;;0.00;74.01;101250.09;5068662;28;20051;-72
2022/01/29 06:43:31;;;;;;;19.33;14.50;;;;;;;0.17;72.94;101245.88;5074510;28;20472;-71
2022/01/29 06:45:57;;;;;;;14.82;11.02;;;;;;;0.21;73.41;101234.91;5072439;28;20357;-71
2022/01/29 06:48:23;;;;;;;25.90;17.02;;;;;;;0.31;72.61;101262.13;5068263;28;20511;-73
2022/01/29 06:50:59;;;;;;;32.67;23.98;;;;;;;-0.06;73.78;101263.53;5069884;28;20029;-73
2022/01/29 06:53:34;;;;;;;36.25;28.50;;;;;;;0.38;73.01;101261.66;5066885;28;20481;-72
2022/01/29 06:55:59;;;;;;;25.20;17.08;;;;;;;0.32;72.52;101241.53;5059247;28;20036;-71
2022/01/29 06:58:25;;;;;;;39.42;16.63;;;;;;;0.48;72.98;101266.50;5066863;28;20102;-73
2022/01/29 07:00:50;;;;;;;34.28;13.80;;;;;;;0.45;72.62;101263.75;5068013;28;20074;-73
2022/01/29 07:03:16;;;;;;;29.65;14.48;;;;;;;0.51;72.35;101258.03;5065181;28;20047;-73
2022/01/29 07:05:41;;;;;;;19.98;11.13;;;;;;;0.57;72.28;101267.00;5069271;28;20029;-72
2022/01/29 07:08:07;;;;;;;35.10;14.68;;;;;;;0.88;71.27;101267.75;5067284;28;20051;-70
2022/01/29 07:10:33;;;;;;;20.83;14.02;;;;;;;0.66;71.25;101270.91;5066097;28;20127;-73
2022/01/29 07:12:59;;;;;;;23.75;15.18;;;;;;;1.04;70.68;101273.78;5067804;28;20055;-72
2022/01/29 07:15:24;;;;;;;20.55;13.82;;;;;;;1.01;70.47;101278.81;5083220;28;20119;-72
2022/01/29 07:17:50;;;;;;;26.35;16.25;;;;;;;0.89;70.63;101287.59;5067588;28;20021;-73
2022/01/29 07:20:15;;;;;;;25.67;13.50;;;;;;;1.03;70.86;101299.53;5068023;28;20040;-70
2022/01/29 07:22:44;;;;;;;26.08;16.58;;;;;;;0.96;71.46;101300.94;5068919;28;20050;-71
2022/01/29 07:25:10;;;;;;;25.42;19.38;;;;;;;0.55;71.99;101298.72;5065944;28;20476;-71
2022/01/29 07:27:35;;;;;;;20.55;17.02;;;;;;;0.59;71.86;101259.34;5065471;28;20128;-71
2022/01/29 07:30:11;;;;;;;26.42;18.77;;;;;;;0.90;70.78;101281.66;5069045;28;20036;-71
2022/01/29 07:32:42;;;;;;;35.45;21.48;;;;;;;1.01;70.63;101291.75;5059547;28;20033;-71
2022/01/29 07:35:08;;;;;;;39.58;17.02;;;;;;;0.93;71.35;101294.72;5060495;28;20319;-72
2022/01/29 07:37:59;;;;;;;47.78;24.40;;;;;;;0.63;71.60;101305.16;5062796;28;20473;-72
2022/01/29 07:40:26;;;;;;;28.55;19.25;;;;;;;0.69;71.44;101297.75;5077284;28;20044;-71
2022/01/29 07:43:24;;;;;;;27.20;18.45;;;;;;;0.90;71.41;101310.94;5066503;28;20097;-73
2022/01/29 07:45:49;;;;;;;31.27;20.95;;;;;;;1.41;69.66;101304.16;5084105;28;20054;-72
2022/01/29 07:48:35;;;;;;;35.60;27.80;;;;;;;1.14;69.64;101318.22;5069422;28;20040;-72
2022/01/29 07:51:00;;;;;;;34.30;20.98;;;;;;;1.22;70.30;101304.00;5061472;28;20028;-72
2022/01/29 07:53:26;;;;;;;26.33;19.45;;;;;;;1.35;70.00;101326.22;5069094;28;20051;-71
2022/01/29 07:55:51;;;;;;;42.90;30.00;;;;;;;1.43;70.27;101315.47;5062772;28;20033;-71
2022/01/29 07:58:17;;;;;;;45.80;33.60;;;;;;;1.49;69.85;101322.63;5065496;28;20086;-74
2022/01/29 08:00:42;;;;;;;29.58;21.13;;;;;;;1.98;68.27;101311.28;5067695;28;20048;-73
2022/01/29 08:03:08;;;;;;;30.75;18.50;;;;;;;2.00;66.89;101301.88;5070645;28;20452;-71
2022/01/29 08:05:35;;;;;;;25.27;17.20;;;;;;;2.19;66.66;101321.78;5069896;28;20430;-72
2022/01/29 08:08:00;;;;;;;23.35;18.10;;;;;;;2.50;65.66;101324.13;5073955;28;20472;-74
2022/01/29 08:10:25;;;;;;;22.58;18.42;;;;;;;2.55;64.90;101296.75;5060673;28;20052;-73
2022/01/29 08:12:51;;;;;;;20.70;16.98;;;;;;;2.70;64.47;101323.38;5064304;28;20036;-73
2022/01/29 08:15:16;;;;;;;27.08;17.58;;;;;;;2.76;64.02;101304.63;5073327;28;20094;-73
2022/01/29 08:17:42;;;;;;;22.27;16.83;;;;;;;2.93;63.99;101324.44;5073283;28;20025;-73
2022/01/29 08:20:08;;;;;;;24.42;16.88;;;;;;;2.90;63.89;101333.75;5072171;28;20041;-73
2022/01/29 08:22:33;;;;;;;31.02;19.00;;;;;;;2.85;63.69;101341.31;5071493;28;20472;-72
2022/01/29 08:24:59;;;;;;;33.13;16.25;;;;;;;2.92;63.43;101342.50;5072773;28;20040;-73
2022/01/29 08:27:24;;;;;;;33.80;18.88;;;;;;;3.15;62.78;101349.63;5070658;28;20068;-73
2022/01/29 08:29:50;;;;;;;22.75;15.32;;;;;;;3.02;62.86;101336.94;5069857;28;20055;-72
2022/01/29 08:32:40;;;;;;;24.25;14.60;;;;;;;3.19;62.10;101357.56;5070851;28;20090;-73
2022/01/29 08:38:33;;;;;;;23.20;13.90;;;;;;;3.18;61.78;101364.44;5067508;28;20047;-73
2022/01/29 08:40:59;;;;;;;20.02;14.40;;;;;;;3.19;61.75;101366.22;5069556;28;20448;-73
2022/01/29 08:43:26;;;;;;;29.90;17.20;;;;;;;3.09;61.53;101344.19;5061370;28;20044;-73
2022/01/29 08:45:53;;;;;;;18.35;15.63;;;;;;;3.17;61.63;101367.84;5066918;28;20044;-80
2022/01/29 08:48:19;;;;;;;21.55;16.13;;;;;;;3.19;61.60;101363.63;5068419;28;20059;-73
2022/01/29 08:50:45;;;;;;;15.85;13.20;;;;;;;3.37;61.27;101366.13;5068899;28;20040;-74
2022/01/29 08:53:11;;;;;;;18.23;14.48;;;;;;;3.21;61.65;101348.13;5081962;28;20056;-74
2022/01/29 08:55:37;;;;;;;25.00;16.98;;;;;;;3.16;62.09;101351.41;5069030;28;20078;-73
2022/01/29 08:58:07;;;;;;;17.40;13.35;;;;;;;3.41;61.15;101361.97;5064264;28;20048;-74
2022/01/29 09:00:34;;;;;;;18.67;14.25;;;;;;;3.39;61.22;101374.88;5078092;28;20155;-73
2022/01/29 09:03:00;;;;;;;28.08;13.38;;;;;;;3.88;60.32;101365.75;5065685;28;20043;-71
2022/01/29 09:05:25;;;;;;;19.27;15.15;;;;;;;3.98;59.92;101378.28;5069869;28;20368;-75
2022/01/29 09:07:51;;;;;;;19.20;14.30;;;;;;;3.86;59.73;101378.66;5068956;28;20423;-71
2022/01/29 09:10:16;;;;;;;19.42;12.27;;;;;;;3.99;59.14;101393.94;5063286;28;20076;-74
2022/01/29 09:12:42;;;;;;;24.05;12.85;;;;;;;3.44;60.72;101380.28;5071139;28;20037;-71
2022/01/29 09:15:08;;;;;;;14.73;13.10;;;;;;;3.48;60.56;101371.81;5055710;28;20037;-73
2022/01/29 09:21:44;;;;;;;22.13;12.70;;;;;;;3.56;59.68;101392.09;5075259;28;20459;-72
2022/01/29 09:24:10;;;;;;;15.40;11.27;;;;;;;4.35;58.88;101385.91;5069601;28;20037;-73
2022/01/29 09:26:35;;;;;;;18.95;10.80;;;;;;;4.35;57.62;101364.22;5070861;28;20021;-71
2022/01/29 09:29:01;;;;;;;16.13;12.23;;;;;;;4.71;57.14;101384.75;5061455;28;20377;-73
2022/01/29 09:31:26;;;;;;;16.27;11.25;;;;;;;4.33;57.49;101371.06;5069558;28;20044;-71
2022/01/29 09:33:52;;;;;;;18.77;11.40;;;;;;;4.12;57.89;101371.06;5065094;28;20410;-76
2022/01/29 09:36:17;;;;;;;18.65;11.45;;;;;;;4.76;57.33;101384.09;5074365;28;20044;-73
2022/01/29 09:39:03;;;;;;;16.67;12.45;;;;;;;4.80;56.79;101377.28;5080648;28;20024;-72
2022/01/29 09:41:29;;;;;;;17.80;14.55;;;;;;;4.41;57.81;101361.91;5080725;28;20177;-71
2022/01/29 09:43:56;;;;;;;19.90;12.48;;;;;;;5.03;56.00;101378.16;5071182;28;20442;-71
2022/01/29 09:46:23;;;;;;;18.67;11.90;;;;;;;4.90;56.23;101375.94;5070638;28;20045;-71
2022/01/29 09:48:49;;;;;;;19.35;13.23;;;;;;;5.23;55.61;101361.59;5068062;28;20037;-71
2022/01/29 09:52:01;;;;;;;20.63;14.35;;;;;;;5.31;55.69;101369.69;5055554;28;20078;-72
2022/01/29 09:54:55;;;;;;;18.08;13.43;;;;;;;5.55;55.32;101361.88;5069719;28;20483;-71
2022/01/29 09:57:43;;;;;;;20.13;13.98;;;;;;;5.63;55.27;101369.97;5068479;28;20185;-72
2022/01/29 10:00:28;;;;;;;17.77;14.30;;;;;;;5.64;54.65;101371.72;5072610;28;20464;-71
2022/01/29 10:03:13;;;;;;;20.38;14.25;;;;;;;5.64;55.00;101369.13;5069139;28;20036;-72
2022/01/29 10:05:48;;;;;;;20.88;14.75;;;;;;;5.58;55.24;101356.78;5067736;28;20025;-72
2022/01/29 10:08:14;;;;;;;24.58;15.52;;;;;;;5.55;54.57;101356.69;5065736;28;20041;-72
2022/01/29 10:10:53;;;;;;;27.73;14.90;;;;;;;5.69;54.74;101368.47;5070355;28;20052;-72
2022/01/29 10:13:36;;;;;;;22.25;15.38;;;;;;;5.95;54.38;101372.81;5069209;28;20403;-72
2022/01/29 10:16:08;;;;;;;14.45;12.02;;;;;;;6.27;53.72;101368.69;5068593;28;20165;-72
2022/01/29 10:18:35;;;;;;;15.68;12.68;;;;;;;6.24;53.52;101366.88;5066834;28;20041;-72
2022/01/29 10:21:23;;;;;;;14.75;11.18;;;;;;;6.29;53.52;101367.91;5064148;28;20044;-75
2022/01/29 10:23:58;;;;;;;16.95;9.55;;;;;;;16.29;42.56;101340.00;5067152;28;20024;-69
2022/01/29 10:26:40;;;;;;;17.48;10.00;;;;;;;17.20;38.97;101342.63;5070295;28;20056;-70
2022/01/29 10:29:16;;;;;;;21.25;9.90;;;;;;;12.95;42.22;101352.78;5069409;28;20044;-72
2022/01/29 10:31:57;;;;;;;15.85;8.60;;;;;;;17.50;35.68;101344.00;5072760;28;20063;-70
2022/01/29 10:34:30;;;;;;;13.93;8.60;;;;;;;15.42;38.53;101301.78;5066966;28;20488;-71
2022/01/29 10:37:18;;;;;;;19.48;7.85;;;;;;;17.43;34.03;101337.00;5067825;28;20048;-71
2022/01/29 10:39:48;;;;;;;25.42;8.60;;;;;;;15.56;36.54;101330.81;5064902;28;20051;-71
2022/01/29 10:42:43;;;;;;;9.48;6.82;;;;;;;16.63;32.57;101327.31;5070322;28;20037;-72
2022/01/29 10:45:56;;;;;;;12.93;5.35;;;;;;;17.03;33.67;101334.88;5070209;28;20120;-79
2022/01/29 10:48:21;;;;;;;12.88;7.32;;;;;;;12.93;35.07;101337.84;5069385;28;20070;-85
2022/01/29 10:51:10;;;;;;;17.58;7.25;;;;;;;15.63;33.72;101330.75;5076751;28;20063;-79
2022/01/29 10:53:35;;;;;;;13.95;7.38;;;;;;;11.67;39.97;101321.94;5066066;28;20082;-70
2022/01/29 10:56:03;;;;;;;11.48;5.40;;;;;;;12.26;41.55;101323.38;5088563;28;20526;-87
2022/01/29 10:58:28;;;;;;;9.70;5.35;;;;;;;16.85;32.40;101306.78;5067593;28;20439;-69
2022/01/29 11:01:14;;;;;;;12.65;5.68;;;;;;;6.97;43.46;101316.13;5066592;28;20045;-74
2022/01/29 11:03:40;;;;;;;10.75;6.00;;;;;;;6.88;45.54;101334.13;5061184;28;20052;-74
2022/01/29 11:06:09;;;;;;;7.88;4.72;;;;;;;9.92;39.74;101304.66;5066628;28;20541;-75
2022/01/29 11:08:36;;;;;;;20.77;7.38;;;;;;;7.55;44.80;101311.66;5073260;28;20031;-73
2022/01/29 11:11:02;;;;;;;13.55;6.20;;;;;;;7.11;46.28;101324.34;5064309;28;20049;-72
2022/01/29 11:13:28;;;;;;;11.10;5.88;;;;;;;6.78;46.70;101303.38;5067036;28;20089;-72
2022/01/29 11:15:56;;;;;;;7.80;5.85;;;;;;;7.92;44.95;101314.34;5074537;28;20040;-72
2022/01/29 11:18:25;;;;;;;8.77;7.35;;;;;;;7.75;44.75;101311.28;5068413;28;20135;-71
2022/01/29 11:20:51;;;;;;;12.50;7.65;;;;;;;8.49;43.68;101300.94;5067994;28;20102;-72
2022/01/29 11:23:17;;;;;;;9.13;6.43;;;;;;;9.35;42.18;101308.00;5067969;28;20028;-71
2022/01/29 11:25:43;;;;;;;9.82;6.55;;;;;;;8.35;44.17;101313.66;5067139;28;20125;-72
2022/01/29 11:28:17;;;;;;;11.73;6.70;;;;;;;8.19;45.24;101304.59;5067158;28;20073;-72
2022/01/29 11:30:45;;;;;;;12.90;8.23;;;;;;;9.27;41.54;101289.50;5066138;28;20391;-72
2022/01/29 11:33:11;;;;;;;11.43;6.85;;;;;;;9.41;41.95;101297.63;5067211;28;20458;-72
2022/01/29 11:35:51;;;;;;;9.05;5.70;;;;;;;8.83;41.94;101294.72;5070082;28;20067;-71
2022/01/29 11:38:36;;;;;;;10.32;7.95;;;;;;;9.38;41.57;101292.31;5055070;28;20472;-72
2022/01/29 11:41:05;;;;;;;14.82;7.05;;;;;;;9.09;40.92;101273.44;5059978;28;20051;-72
2022/01/29 11:43:34;;;;;;;8.60;6.68;;;;;;;8.98;41.79;101296.75;5066694;28;20415;-71
2022/01/29 11:46:15;;;;;;;10.18;7.25;;;;;;;8.86;43.27;101291.28;5066844;28;20043;-71
2022/01/29 11:49:16;;;;;;;11.75;5.78;;;;;;;8.21;43.55;101283.69;5068158;28;20447;-71
2022/01/29 11:51:52;;;;;;;11.02;8.18;;;;;;;8.85;42.90;101281.69;5065679;28;20088;-72
2022/01/29 11:54:23;;;;;;;10.80;7.20;;;;;;;8.20;43.24;101263.63;5065075;28;20131;-72
2022/01/29 11:57:22;;;;;;;14.48;10.13;;;;;;;8.22;43.62;101280.25;5065412;28;20521;-71
2022/01/29 11:59:47;;;;;;;14.20;8.25;;;;;;;7.87;44.59;101259.38;5065506;28;20441;-72